Time;durP1;ratioP1;P1;durP2;ratioP2;P2;SDS_P1;SDS_P2;PMS_P1;PMS_P2;Temp;Humidity;BMP_temperature;BMP_pressure;BME280_temperature;BME280_humidity;BME280_pressure;Samples;Min_cycle;Max_cycle;Signal;HPM_P1;HPM_P2
2021/10/25 00:00:11;;;;;;;63.97;28.97;;;;;;;-0.12;76.44;102035.42;1429362;91;22467;-90
2021/10/25 00:02:38;;;;;;;55.28;27.62;;;;;;;-0.11;76.22;102033.70;1438607;91;22305;-90
2021/10/25 00:05:05;;;;;;;58.30;28.07;;;;;;;-0.11;76.76;102037.16;1430068;91;22148;-90
2021/10/25 00:07:32;;;;;;;48.52;23.55;;;;;;;-0.08;76.02;102038.37;1434304;91;21514;-89
2021/10/25 00:10:00;;;;;;;55.03;26.05;;;;;;;-0.11;77.02;102031.94;1430645;91;21654;-90
2021/10/25 00:12:27;;;;;;;54.27;28.40;;;;;;;-0.15;76.14;102039.86;1434786;91;21581;-90
2021/10/25 00:14:54;;;;;;;55.85;28.67;;;;;;;-0.18;75.30;102043.39;1433185;91;21513;-91
2021/10/25 00:17:22;;;;;;;63.95;29.70;;;;;;;-0.22;75.16;102043.08;1410380;91;21463;-90
2021/10/25 00:19:50;;;;;;;65.55;31.37;;;;;;;-0.26;74.70;102044.02;1425558;91;21484;-90
2021/10/25 00:22:17;;;;;;;63.02;29.32;;;;;;;-0.29;74.17;102037.60;1428634;90;22453;-90
2021/10/25 00:24:45;;;;;;;64.30;28.92;;;;;;;-0.32;74.60;102041.58;1438586;91;22498;-90
2021/10/25 00:27:12;;;;;;;60.92;28.90;;;;;;;-0.36;74.17;102040.81;1429351;91;21433;-90
2021/10/25 00:29:39;;;;;;;50.23;27.40;;;;;;;-0.44;73.80;102041.44;1428303;91;21610;-90
2021/10/25 00:32:06;;;;;;;50.58;26.05;;;;;;;-0.55;73.22;102041.70;1433349;91;21587;-90
2021/10/25 00:34:34;;;;;;;50.03;25.20;;;;;;;-0.62;73.57;102035.40;1430320;91;21448;-90
2021/10/25 00:37:03;;;;;;;45.83;25.55;;;;;;;-0.62;74.66;102030.20;1431150;91;21484;-89
2021/10/25 00:39:31;;;;;;;55.25;24.50;;;;;;;-0.64;75.07;102037.17;1428229;91;22489;-89
2021/10/25 00:42:00;;;;;;;40.23;24.60;;;;;;;-0.71;75.32;102033.87;1429221;90;21679;-90
2021/10/25 00:44:31;;;;;;;49.65;25.02;;;;;;;-0.70;75.69;102035.57;1442314;90;22348;-90
2021/10/25 00:47:00;;;;;;;43.73;23.90;;;;;;;-0.75;75.78;102032.22;1427844;89;21464;-89
2021/10/25 00:49:27;;;;;;;42.25;23.42;;;;;;;-0.78;76.58;102029.69;1402026;92;21516;-91
2021/10/25 00:51:55;;;;;;;56.30;23.95;;;;;;;-0.79;76.65;102029.29;1404744;93;21530;-90
2021/10/25 00:54:23;;;;;;;49.63;25.12;;;;;;;-0.80;76.16;102032.80;1397419;92;21479;-90
2021/10/25 00:56:50;;;;;;;48.15;25.35;;;;;;;-0.81;75.92;102032.36;1391889;94;21523;-89
2021/10/25 00:59:18;;;;;;;49.88;26.20;;;;;;;-0.78;75.58;102028.39;1391717;93;21464;-90
2021/10/25 01:01:45;;;;;;;43.33;22.77;;;;;;;-0.78;75.58;102029.69;1385052;94;22352;-90
2021/10/25 01:04:13;;;;;;;45.85;22.42;;;;;;;-0.79;75.86;102021.49;1388881;93;22463;-89
2021/10/25 01:06:40;;;;;;;50.52;23.02;;;;;;;-0.79;75.53;102024.09;1391750;94;22816;-88
2021/10/25 01:09:07;;;;;;;42.13;22.90;;;;;;;-0.75;75.30;102021.81;1390984;94;22625;-89
2021/10/25 01:11:36;;;;;;;43.83;21.60;;;;;;;-0.76;75.33;102020.12;1388446;94;21768;-90
2021/10/25 01:14:03;;;;;;;39.98;21.25;;;;;;;-0.83;75.03;102020.72;1390778;94;21751;-90
2021/10/25 01:16:30;;;;;;;50.67;24.10;;;;;;;-0.86;75.52;102023.39;1389876;93;21606;-89
2021/10/25 01:18:58;;;;;;;54.30;25.48;;;;;;;-0.83;75.13;102023.77;1387119;94;22590;-89
2021/10/25 01:21:25;;;;;;;45.73;22.95;;;;;;;-0.80;75.64;102018.49;1389267;94;22703;-91
2021/10/25 01:23:54;;;;;;;47.20;25.00;;;;;;;-0.79;76.03;102018.89;1374366;94;21672;-89
2021/10/25 01:26:23;;;;;;;41.90;21.20;;;;;;;-0.81;75.41;102012.41;1369381;95;21641;-89
2021/10/25 01:28:53;;;;;;;46.90;22.13;;;;;;;-0.84;74.59;102012.94;1390548;93;21679;-89
2021/10/25 01:31:22;;;;;;;41.23;21.82;;;;;;;-0.88;74.18;102016.06;1366940;95;21542;-91
2021/10/25 01:33:51;;;;;;;46.35;24.07;;;;;;;-0.88;74.68;102020.41;1392785;94;21450;-90
2021/10/25 01:36:20;;;;;;;46.20;23.42;;;;;;;-0.84;74.56;102016.84;1371930;95;21518;-91
2021/10/25 01:38:48;;;;;;;55.17;24.92;;;;;;;-0.87;75.08;102010.41;1386237;94;22471;-90
2021/10/25 01:41:15;;;;;;;51.70;26.27;;;;;;;-0.88;74.27;102015.21;1369027;95;21503;-93
2021/10/25 01:43:42;;;;;;;52.62;25.45;;;;;;;-0.95;74.21;102014.06;1393725;93;21671;-91
2021/10/25 01:46:10;;;;;;;40.92;22.95;;;;;;;-0.98;74.21;102015.43;1388072;93;21686;-91
2021/10/25 01:48:37;;;;;;;46.05;22.75;;;;;;;-1.01;74.40;102015.47;1383102;93;21502;-90
2021/10/25 01:51:05;;;;;;;49.75;23.12;;;;;;;-1.02;74.63;102015.52;1385610;94;21638;-92
2021/10/25 01:53:36;;;;;;;38.90;22.13;;;;;;;-1.02;74.65;102012.47;1386618;94;21643;-90
2021/10/25 01:56:07;;;;;;;50.03;23.62;;;;;;;-1.03;74.02;102014.67;1387690;93;21442;-90
2021/10/25 01:58:35;;;;;;;44.20;20.85;;;;;;;-1.05;73.96;102013.84;1388236;93;22470;-91
2021/10/25 02:01:04;;;;;;;46.55;23.57;;;;;;;-1.00;74.14;102012.00;1383997;94;21716;-91
2021/10/25 02:03:34;;;;;;;51.35;24.63;;;;;;;-0.94;74.34;102016.20;1398999;93;21624;-90
2021/10/25 02:06:01;;;;;;;39.30;20.43;;;;;;;-0.94;74.37;102011.86;1396242;94;21539;-91
2021/10/25 02:08:29;;;;;;;48.68;26.48;;;;;;;-0.95;74.16;102010.58;1383633;94;21583;-91
2021/10/25 02:10:56;;;;;;;49.00;24.37;;;;;;;-0.97;74.38;102009.78;1367710;94;21546;-91
2021/10/25 02:13:23;;;;;;;48.30;21.97;;;;;;;-0.99;74.13;102011.10;1386873;93;21509;-91
2021/10/25 02:15:53;;;;;;;43.00;22.73;;;;;;;-0.99;74.49;102012.41;1388420;94;22463;-92
2021/10/25 02:18:21;;;;;;;39.60;20.75;;;;;;;-1.01;74.23;102010.27;1393767;93;21768;-92
2021/10/25 02:20:49;;;;;;;48.48;21.48;;;;;;;-1.11;73.25;102013.14;1384482;94;21613;-91
2021/10/25 02:23:17;;;;;;;44.73;22.90;;;;;;;-1.20;73.53;102018.09;1382579;94;21655;-92
2021/10/25 02:25:45;;;;;;;46.37;21.23;;;;;;;-1.20;74.60;102016.80;1388260;94;21660;-91
2021/10/25 02:28:12;;;;;;;45.78;25.15;;;;;;;-1.21;75.20;102015.06;1384864;93;22545;-91
2021/10/25 02:30:40;;;;;;;49.63;24.10;;;;;;;-1.19;75.59;102017.19;1393654;94;21649;-91
2021/10/25 02:33:07;;;;;;;48.33;23.22;;;;;;;-1.16;76.21;102013.22;1388175;93;21731;-92
2021/10/25 02:35:34;;;;;;;43.95;22.82;;;;;;;-1.15;76.67;102013.20;1394934;94;21672;-91
2021/10/25 02:38:01;;;;;;;49.58;23.67;;;;;;;-1.12;76.92;102012.28;1386444;94;21672;-91
2021/10/25 02:40:29;;;;;;;49.33;23.75;;;;;;;-1.10;77.22;102010.48;1387890;93;21739;-89
2021/10/25 02:42:57;;;;;;;53.45;23.15;;;;;;;-1.08;76.72;102007.87;1388591;93;21616;-91
2021/10/25 02:45:26;;;;;;;46.13;24.45;;;;;;;-1.10;76.34;102011.78;1388688;94;21499;-90
2021/10/25 02:47:54;;;;;;;49.73;22.15;;;;;;;-1.09;76.16;102013.52;1397393;94;22392;-94
2021/10/25 02:50:21;;;;;;;47.38;24.05;;;;;;;-0.99;76.29;102011.10;1391393;94;22473;-90
2021/10/25 02:52:48;;;;;;;50.95;25.05;;;;;;;-0.89;76.47;102010.88;1394055;94;21483;-91
2021/10/25 02:55:15;;;;;;;46.60;23.75;;;;;;;-0.91;76.05;102016.98;1380538;94;21558;-91
2021/10/25 02:57:42;;;;;;;44.58;24.50;;;;;;;-0.93;75.60;102009.66;1365981;94;21565;-90
2021/10/25 03:00:14;;;;;;;49.05;23.62;;;;;;;-0.91;75.49;102007.03;1399383;93;21488;-90
2021/10/25 03:02:44;;;;;;;47.75;22.65;;;;;;;-0.94;74.85;102006.66;1408473;93;22384;-91
2021/10/25 03:05:12;;;;;;;41.35;17.92;;;;;;;-0.96;74.60;102003.23;1408508;93;21528;-91
2021/10/25 03:07:39;;;;;;;51.58;23.65;;;;;;;-0.96;74.70;102005.83;1402845;93;21564;-91
2021/10/25 03:10:08;;;;;;;46.33;23.75;;;;;;;-0.97;74.88;101998.94;1406886;93;22524;-91
2021/10/25 03:12:36;;;;;;;49.13;22.95;;;;;;;-0.99;74.82;102000.70;1404446;93;23467;-90
2021/10/25 03:15:07;;;;;;;52.75;24.10;;;;;;;-1.01;74.94;102003.77;1406232;93;22444;-89
2021/10/25 03:17:35;;;;;;;45.58;21.57;;;;;;;-1.02;74.55;102009.87;1407025;93;21483;-91
2021/10/25 03:20:05;;;;;;;48.05;21.65;;;;;;;-0.99;74.59;102008.50;1406466;93;21572;-91
2021/10/25 03:22:32;;;;;;;44.93;22.52;;;;;;;-0.93;74.71;102009.66;1400705;93;21608;-90
2021/10/25 03:24:59;;;;;;;44.42;22.30;;;;;;;-0.92;74.49;102003.59;1406239;93;21641;-91
2021/10/25 03:27:27;;;;;;;46.92;22.27;;;;;;;-0.95;73.81;102004.08;1408239;93;21698;-91
2021/10/25 03:29:54;;;;;;;52.27;22.93;;;;;;;-1.06;73.40;101999.16;1394108;93;21631;-90
2021/10/25 03:32:22;;;;;;;56.30;23.87;;;;;;;-1.18;72.38;101995.09;1392203;93;21698;-91
2021/10/25 03:34:50;;;;;;;58.50;26.45;;;;;;;-1.24;72.51;101995.64;1401227;93;21483;-92
2021/10/25 03:37:18;;;;;;;56.20;26.70;;;;;;;-1.31;72.77;102003.17;1402803;93;21497;-91
2021/10/25 03:39:49;;;;;;;53.95;26.15;;;;;;;-1.37;73.10;102001.56;1402266;93;21454;-91
2021/10/25 03:42:26;;;;;;;62.08;30.17;;;;;;;-1.40;73.71;101992.09;1384257;92;22488;-91
2021/10/25 03:44:54;;;;;;;52.58;26.65;;;;;;;-1.41;74.07;101996.89;1386901;94;21482;-91
2021/10/25 03:48:07;;;;;;;38.63;20.57;;;;;;;-1.34;74.14;101997.60;1387321;94;22399;-91
2021/10/25 03:50:05;;;;;;;43.13;21.93;;;;;;;-1.26;74.45;101990.95;1372516;94;21688;-92
2021/10/25 03:55:06;;;;;;;51.83;26.05;;;;;;;-1.29;74.37;101998.81;1387811;93;21749;-92
2021/10/25 03:57:52;;;;;;;43.87;23.52;;;;;;;-1.32;74.22;101994.53;1388437;94;21600;-90
2021/10/25 04:27:15;;;;;;;37.13;18.07;;;;;;;-1.19;73.71;101974.32;1376754;94;22385;-90
2021/10/25 04:29:30;;;;;;;45.33;20.97;;;;;;;-1.15;73.93;101977.28;1382962;94;21498;-94
2021/10/25 04:31:58;;;;;;;37.25;19.92;;;;;;;-1.09;74.11;101977.13;1373897;93;21686;-92
2021/10/25 04:34:25;;;;;;;40.43;20.60;;;;;;;-1.14;74.17;101965.98;1385009;94;21497;-91
2021/10/25 04:36:52;;;;;;;50.65;25.00;;;;;;;-1.22;73.49;101967.90;1370226;94;21550;-93
2021/10/25 04:39:19;;;;;;;47.43;23.30;;;;;;;-1.36;73.11;101967.75;1367659;95;21497;-91
2021/10/25 04:41:47;;;;;;;56.05;24.00;;;;;;;-1.47;72.55;101956.73;1367725;95;21668;-89
2021/10/25 04:44:14;;;;;;;60.83;25.55;;;;;;;-1.64;71.92;101963.62;1351164;95;21519;-93
2021/10/25 04:46:41;;;;;;;44.70;24.10;;;;;;;-1.77;72.82;101957.41;1373555;95;21489;-94
2021/10/25 04:49:08;;;;;;;52.73;23.75;;;;;;;-1.78;73.39;101957.85;1364896;94;23472;-92
2021/10/25 04:51:36;;;;;;;53.00;24.87;;;;;;;-1.79;73.92;101959.16;1379464;94;21460;-95
2021/10/25 04:54:04;;;;;;;64.32;26.00;;;;;;;-1.74;74.13;101965.13;1385717;94;21424;-93
2021/10/25 04:56:31;;;;;;;41.30;22.27;;;;;;;-1.63;74.40;101964.47;1367940;94;21461;-94
2021/10/25 04:58:58;;;;;;;41.10;21.42;;;;;;;-1.53;74.68;101961.22;1355838;93;21445;-96
2021/10/25 05:01:26;;;;;;;43.83;20.45;;;;;;;-1.44;74.75;101956.70;1352026;94;21467;-91
2021/10/25 05:03:53;;;;;;;33.25;17.60;;;;;;;-1.39;74.77;101963.92;1381427;93;22338;-91
2021/10/25 05:06:20;;;;;;;38.90;20.20;;;;;;;-1.39;74.56;101960.02;1382225;94;21446;-94
2021/10/25 05:08:47;;;;;;;43.70;19.35;;;;;;;-1.37;74.48;101964.75;1384886;93;21519;-92
2021/10/25 05:11:14;;;;;;;36.70;17.82;;;;;;;-1.27;74.68;101964.54;1365204;94;21545;-93
2021/10/25 05:13:46;;;;;;;30.90;17.07;;;;;;;-1.20;74.46;101959.63;1377525;94;21528;-91
2021/10/25 05:16:11;;;;;;;48.33;18.05;;;;;;;-1.19;74.49;101958.73;1377607;94;21711;-91
2021/10/25 05:18:38;;;;;;;49.08;21.07;;;;;;;-1.24;73.97;101961.42;1388593;94;21504;-93
2021/10/25 05:21:05;;;;;;;40.80;20.92;;;;;;;-1.31;73.89;101968.11;1375490;94;21439;-92
2021/10/25 05:23:33;;;;;;;38.55;22.00;;;;;;;-1.36;73.84;101972.09;1388390;94;21573;-92
2021/10/25 05:26:00;;;;;;;32.50;18.32;;;;;;;-1.35;73.46;101966.03;1391608;94;21601;-93
2021/10/25 05:28:27;;;;;;;42.13;20.45;;;;;;;-1.40;72.91;101964.82;1386522;94;21518;-93
2021/10/25 05:30:54;;;;;;;38.92;18.80;;;;;;;-1.49;72.74;101973.27;1386701;94;22510;-91
2021/10/25 05:33:21;;;;;;;48.10;21.82;;;;;;;-1.49;72.97;101979.76;1387951;94;21445;-93
2021/10/25 05:35:48;;;;;;;43.35;21.90;;;;;;;-1.43;73.59;101980.47;1364508;94;21593;-92
2021/10/25 05:38:15;;;;;;;49.15;20.97;;;;;;;-1.32;73.36;101978.95;1395234;94;21719;-91
2021/10/25 05:40:43;;;;;;;47.08;18.32;;;;;;;-1.17;73.72;101980.34;1383027;94;21690;-90
2021/10/25 05:43:10;;;;;;;41.42;19.73;;;;;;;-1.05;73.85;101984.41;1382679;93;21685;-88
2021/10/25 05:45:37;;;;;;;60.30;19.17;;;;;;;-0.99;73.45;101982.52;1387857;94;21500;-90
2021/10/25 05:48:06;;;;;;;42.33;19.35;;;;;;;-0.86;73.45;101990.02;1387243;94;21523;-90
2021/10/25 05:50:33;;;;;;;42.20;19.12;;;;;;;-0.73;73.46;101984.94;1381190;94;21544;-90
2021/10/25 05:53:00;;;;;;;37.23;19.00;;;;;;;-0.61;73.20;101989.83;1382857;94;21722;-89
2021/10/25 05:55:30;;;;;;;55.20;20.10;;;;;;;-0.59;72.46;101988.06;1376676;94;21687;-89
2021/10/25 05:57:58;;;;;;;48.17;21.27;;;;;;;-0.61;72.11;101985.94;1385752;93;21623;-89
2021/10/25 06:00:32;;;;;;;41.95;21.45;;;;;;;-0.58;72.02;101983.25;1386907;94;21553;-90
2021/10/25 06:02:58;;;;;;;44.45;19.02;;;;;;;-0.60;71.25;101987.66;1373855;94;21515;-90
2021/10/25 06:05:30;;;;;;;51.35;20.32;;;;;;;-0.67;71.00;101986.09;1387213;94;21523;-90
2021/10/25 06:07:58;;;;;;;39.83;20.03;;;;;;;-0.75;71.35;101981.09;1388931;94;22401;-90
2021/10/25 06:10:27;;;;;;;36.58;19.52;;;;;;;-0.79;72.00;101985.09;1383942;94;21574;-90
2021/10/25 06:12:59;;;;;;;53.90;20.43;;;;;;;-0.80;72.92;101984.70;1381035;94;21546;-90
2021/10/25 06:15:25;;;;;;;43.83;19.95;;;;;;;-0.76;73.41;101985.02;1380287;94;22543;-90
2021/10/25 06:20:23;;;;;;;41.73;22.50;;;;;;;-0.75;74.35;101998.42;1383593;94;21500;-90
2021/10/25 06:22:51;;;;;;;40.67;23.90;;;;;;;-0.64;74.75;101994.27;1383921;94;22499;-90
2021/10/25 06:25:22;;;;;;;40.20;21.33;;;;;;;-0.54;74.88;101994.46;1388015;93;22435;-89
2021/10/25 06:27:52;;;;;;;30.77;19.37;;;;;;;-0.47;74.92;101996.84;1462676;91;22259;-87
2021/10/25 06:30:21;;;;;;;41.65;19.05;;;;;;;-0.33;74.89;101995.66;1506369;91;21580;-88
2021/10/25 06:32:49;;;;;;;33.75;18.82;;;;;;;-0.19;74.60;102006.56;1408725;90;21409;-90
2021/10/25 06:35:21;;;;;;;58.68;21.37;;;;;;;-0.05;74.56;102006.20;1466177;90;21512;-90
2021/10/25 06:40:24;;;;;;;75.25;33.25;;;;;;;0.18;74.93;101995.16;1420845;91;23413;-89
2021/10/25 06:42:52;;;;;;;57.62;23.92;;;;;;;0.29;75.19;101989.20;1428592;90;21402;-89
2021/10/25 06:45:21;;;;;;;45.80;22.23;;;;;;;0.42;74.87;101989.24;1434695;90;22016;-89
2021/10/25 06:47:50;;;;;;;37.87;22.77;;;;;;;0.61;74.96;101991.33;1444601;90;22130;-87
2021/10/25 06:50:24;;;;;;;37.60;20.67;;;;;;;0.77;75.28;101997.77;1431600;90;21666;-89
2021/10/25 06:53:05;;;;;;;40.47;21.83;;;;;;;0.92;75.39;101984.70;1437997;90;22774;-88
2021/10/25 06:55:38;;;;;;;41.23;20.30;;;;;;;1.10;75.58;101988.06;1441686;90;21864;-89
2021/10/25 06:58:06;;;;;;;38.83;20.63;;;;;;;1.17;75.56;101987.41;1439011;90;21451;-89
2021/10/25 07:00:33;;;;;;;37.83;20.50;;;;;;;1.35;75.20;101979.00;1438665;90;21673;-89
2021/10/25 07:03:01;;;;;;;49.03;23.40;;;;;;;1.55;74.96;101985.28;1437121;90;22532;-90
2021/10/25 07:05:32;;;;;;;74.20;35.33;;;;;;;1.79;74.81;101983.16;1438566;90;21571;-90
2021/10/25 07:07:59;;;;;;;83.10;42.60;;;;;;;2.06;74.58;101977.86;1363890;92;23009;-89
2021/10/25 07:10:28;;;;;;;37.30;21.20;;;;;;;2.35;74.01;101985.09;1396252;92;21386;-90
2021/10/25 07:12:57;;;;;;;31.37;18.30;;;;;;;2.61;73.62;101978.43;1521095;90;21585;-88
2021/10/25 07:15:26;;;;;;;29.83;17.37;;;;;;;2.91;73.04;101979.48;1455981;90;21756;-89
2021/10/25 07:18:15;;;;;;;24.83;14.93;;;;;;;3.14;72.19;101981.18;1434109;90;21653;-88
2021/10/25 08:09:59;;;;;;;27.03;15.33;;;;;;;6.97;65.09;101960.49;1393251;90;21541;-88
2021/10/25 08:12:29;;;;;;;27.10;15.03;;;;;;;7.19;63.58;101962.29;1520666;90;21438;-89
2021/10/25 08:15:01;;;;;;;31.23;19.13;;;;;;;7.38;62.77;101957.26;1520570;90;21468;-87
2021/10/25 08:17:49;;;;;;;28.07;16.53;;;;;;;7.50;62.17;101960.48;1492270;90;21416;-88
2021/10/25 08:20:17;;;;;;;25.13;16.20;;;;;;;7.73;62.68;101960.91;1484329;90;21496;-87
2021/10/25 08:22:44;;;;;;;28.73;14.87;;;;;;;7.99;62.00;101958.02;1437714;90;21445;-88
2021/10/25 08:25:12;;;;;;;23.50;13.27;;;;;;;8.18;61.13;101965.19;1451113;90;21466;-87
2021/10/25 08:27:41;;;;;;;23.93;12.73;;;;;;;8.42;61.12;101958.87;1405973;92;21645;-88
2021/10/25 08:30:12;;;;;;;15.40;9.37;;;;;;;8.65;60.44;101952.63;1398848;92;22428;-89
2021/10/25 08:32:48;;;;;;;16.10;9.83;;;;;;;8.90;60.46;101959.34;1411728;92;22047;-87
2021/10/25 08:40:37;;;;;;;15.17;8.50;;;;;;;9.29;58.34;101952.37;1414979;92;21594;-88
2021/10/25 08:43:07;;;;;;;15.33;8.77;;;;;;;9.42;56.47;101947.98;1395872;92;22458;-88
2021/10/25 08:45:35;;;;;;;21.70;12.57;;;;;;;9.61;56.47;101948.05;1416103;93;21637;-88
2021/10/25 08:48:04;;;;;;;20.27;11.50;;;;;;;9.83;55.30;101948.28;1384533;93;21724;-88
2021/10/25 08:50:36;;;;;;;18.63;9.47;;;;;;;10.02;54.63;101939.92;1354337;95;21492;-88
2021/10/25 08:53:07;;;;;;;16.73;8.13;;;;;;;10.13;52.44;101940.02;1406568;97;21609;-89
2021/10/25 08:55:34;;;;;;;10.20;5.60;;;;;;;10.27;53.53;101935.12;1379485;95;21520;-88
2021/10/25 08:58:03;;;;;;;11.40;6.43;;;;;;;10.42;50.67;101936.30;1385634;94;21674;-88
2021/10/25 09:00:50;;;;;;;29.73;18.20;;;;;;;10.65;51.76;101935.97;1377282;94;21586;-89
2021/10/25 09:03:22;;;;;;;16.13;8.93;;;;;;;11.17;48.96;101937.42;1422797;95;21504;-87
2021/10/25 09:06:00;;;;;;;9.60;5.83;;;;;;;11.80;48.34;101924.69;1415197;94;23408;-89
2021/10/25 09:08:28;;;;;;;14.50;10.53;;;;;;;12.43;45.68;101917.95;1377334;94;21592;-89
2021/10/25 09:10:57;;;;;;;10.63;6.97;;;;;;;12.99;45.52;101919.10;1375496;95;21586;-88
2021/10/25 09:13:27;;;;;;;32.30;7.33;;;;;;;13.71;44.72;101917.04;1427692;94;21564;-88
2021/10/25 09:15:59;;;;;;;8.47;5.10;;;;;;;14.32;39.60;101916.16;1371846;94;21556;-89
2021/10/25 09:18:31;;;;;;;18.17;4.70;;;;;;;15.28;43.60;101915.95;1378451;94;21768;-89
2021/10/25 09:21:05;;;;;;;17.80;12.27;;;;;;;15.98;40.71;101913.83;1381492;94;21570;-89
2021/10/25 09:23:51;;;;;;;17.47;13.07;;;;;;;16.54;39.88;101903.95;1380579;94;21518;-89
2021/10/25 09:26:23;;;;;;;10.07;6.83;;;;;;;16.88;38.65;101917.53;1372993;94;21444;-90
2021/10/25 09:28:56;;;;;;;17.00;13.75;;;;;;;17.52;35.06;101910.69;1377369;94;21512;-87
2021/10/25 09:31:32;;;;;;;8.53;4.12;;;;;;;17.54;33.72;101908.20;1407882;94;21430;-87
2021/10/25 09:34:08;;;;;;;7.72;4.25;;;;;;;17.91;34.58;101918.33;1375619;94;22484;-87
2021/10/25 09:36:44;;;;;;;13.85;8.00;;;;;;;18.36;35.05;101905.13;1375853;93;22414;-87
2021/10/25 09:39:17;;;;;;;74.45;7.25;;;;;;;18.36;32.03;101903.28;1369602;95;21496;-87
2021/10/25 09:41:50;;;;;;;6.90;4.05;;;;;;;18.62;34.73;101896.98;1380697;94;22688;-87
2021/10/25 09:50:04;;;;;;;6.00;3.72;;;;;;;19.14;34.16;101893.52;1400605;92;21513;-86
2021/10/25 09:52:37;;;;;;;9.98;5.35;;;;;;;19.29;30.69;101875.40;1386775;92;21477;-87
2021/10/25 09:55:10;;;;;;;11.93;7.10;;;;;;;19.35;32.22;101887.63;1409453;92;21331;-90
2021/10/25 09:57:50;;;;;;;7.00;4.67;;;;;;;19.41;31.61;101886.11;1400634;92;21415;-92
2021/10/25 10:00:10;;;;;;;7.53;3.50;;;;;;;19.71;32.40;101879.20;1450581;92;22738;-89
2021/10/25 10:02:47;;;;;;;12.75;11.00;;;;;;;19.86;29.57;101878.49;1408837;92;21333;-89
2021/10/25 10:05:18;;;;;;;7.22;4.20;;;;;;;20.00;29.62;101873.73;1401605;92;21354;-90
2021/10/25 10:07:46;;;;;;;5.87;3.90;;;;;;;19.94;30.25;101873.92;1390696;93;21526;-90
2021/10/25 10:10:19;;;;;;;5.70;3.90;;;;;;;19.93;28.37;101870.05;1393049;93;21488;-89
2021/10/25 10:12:48;;;;;;;8.88;4.08;;;;;;;20.08;30.36;101863.43;1392327;93;22491;-90
2021/10/25 10:15:29;;;;;;;13.93;7.08;;;;;;;20.31;30.33;101866.17;1425219;95;22287;-92
2021/10/25 10:18:01;;;;;;;7.87;3.65;;;;;;;20.51;28.60;101860.66;1359917;95;22872;-93
2021/10/25 10:20:36;;;;;;;11.90;4.92;;;;;;;20.56;29.77;101858.83;1353591;94;22210;-92
2021/10/25 10:23:12;;;;;;;10.65;5.03;;;;;;;20.21;28.53;101852.45;1369084;95;22593;-92
2021/10/25 10:26:00;;;;;;;6.30;3.72;;;;;;;20.13;28.97;101845.77;1368636;95;21652;-92
2021/10/25 10:28:44;;;;;;;14.15;11.53;;;;;;;20.15;29.41;101848.30;1412237;95;21507;-92
2021/10/25 10:31:24;;;;;;;11.22;7.62;;;;;;;20.00;28.59;101850.89;1351463;95;21429;-91
2021/10/25 10:33:58;;;;;;;;;;;;;;;20.20;29.19;101846.75;1356661;95;21721;-94
2021/10/25 10:36:34;;;;;;;13.65;3.52;;;;;;;20.22;28.76;101843.36;1368334;95;21384;-91
2021/10/25 10:39:15;;;;;;;8.73;4.37;;;;;;;20.42;28.96;101838.88;1352480;95;22155;-92
2021/10/25 10:41:53;;;;;;;6.55;3.00;;;;;;;20.24;28.95;101835.97;1369752;95;21363;-91
2021/10/25 10:44:28;;;;;;;11.35;3.72;;;;;;;20.35;28.39;101841.45;1369526;95;21452;-92
2021/10/25 10:47:03;;;;;;;10.93;5.12;;;;;;;20.41;28.58;101832.67;1439981;95;21410;-92
2021/10/25 10:49:50;;;;;;;14.70;8.58;;;;;;;20.25;26.91;101830.94;1388331;89;22467;-90
2021/10/25 10:52:37;;;;;;;17.57;6.30;;;;;;;20.07;28.39;101827.66;1415048;88;21669;-87
2021/10/25 10:55:22;;;;;;;9.73;2.65;;;;;;;20.38;29.04;101818.75;1467525;89;23475;-88
2021/10/25 11:00:38;;;;;;;6.87;2.42;;;;;;;20.86;29.00;101816.70;1549532;89;21219;-88
2021/10/25 11:03:21;;;;;;;9.05;2.62;;;;;;;21.21;28.31;101811.70;1543920;89;21322;-87
2021/10/25 11:06:07;;;;;;;6.05;3.55;;;;;;;21.67;27.87;101806.98;1548972;89;21329;-87
2021/10/25 11:08:38;;;;;;;6.75;2.92;;;;;;;21.53;26.34;101815.39;1386995;89;21344;-93
2021/10/25 11:11:21;;;;;;;11.22;2.72;;;;;;;21.32;25.37;101805.83;1433613;89;21359;-92
2021/10/25 11:14:03;;;;;;;11.83;2.65;;;;;;;21.32;27.00;101806.69;1548805;89;21339;-92
2021/10/25 11:16:43;;;;;;;3.47;2.60;;;;;;;20.84;26.99;101809.35;1511913;89;21573;-93
2021/10/25 11:19:11;;;;;;;9.95;3.40;;;;;;;21.03;26.99;101802.59;1418790;89;21315;-93
2021/10/25 11:21:56;;;;;;;4.87;2.65;;;;;;;21.23;26.97;101804.25;1505925;89;21374;-93
2021/10/25 11:24:24;;;;;;;6.83;2.90;;;;;;;21.44;26.63;101787.41;1490840;89;22291;-93
2021/10/25 11:26:55;;;;;;;10.15;5.95;;;;;;;21.52;26.33;101782.76;1387193;89;21293;-92
2021/10/25 11:29:27;;;;;;;6.08;3.10;;;;;;;;;;1398567;89;21486;-92
2021/10/25 11:32:03;;;;;;;6.45;3.45;;;;;;;21.78;26.40;101784.95;1527556;90;21369;-93
2021/10/25 11:34:40;;;;;;;8.10;2.40;;;;;;;21.78;25.28;101780.05;1371336;91;21457;-92
2021/10/25 11:37:23;;;;;;;10.60;2.65;;;;;;;22.05;25.24;101775.30;1438251;89;21455;-92
2021/10/25 11:40:02;;;;;;;6.15;3.08;;;;;;;21.97;25.61;101772.72;1549498;89;22413;-94
2021/10/25 11:42:36;;;;;;;5.08;2.90;;;;;;;22.16;24.97;101761.01;1374702;91;21301;-92
2021/10/25 11:45:14;;;;;;;6.47;2.58;;;;;;;22.09;24.90;101755.02;1446907;90;21253;-94
2021/10/25 11:47:46;;;;;;;6.47;2.35;;;;;;;22.19;24.96;101753.40;1491189;90;21494;-93
2021/10/25 11:50:18;;;;;;;4.10;2.55;;;;;;;22.49;25.19;101748.69;1426220;91;22379;-92
2021/10/25 11:52:54;;;;;;;7.50;2.90;;;;;;;22.37;24.12;101748.89;1443220;89;21502;-91
2021/10/25 11:55:28;;;;;;;6.92;2.67;;;;;;;21.93;24.17;101741.80;1441772;90;22405;-93
2021/10/25 11:58:15;;;;;;;6.92;3.50;;;;;;;22.18;24.56;101742.79;1439855;90;21421;-92
2021/10/25 12:00:47;;;;;;;6.35;2.67;;;;;;;22.14;23.57;101742.31;1440294;90;21424;-92
2021/10/25 12:03:21;;;;;;;18.55;3.60;;;;;;;22.16;23.18;101742.14;1365489;90;22331;-92
2021/10/25 12:05:55;;;;;;;8.08;2.52;;;;;;;22.33;24.62;101742.23;1464136;90;21446;-91
2021/10/25 12:08:22;;;;;;;8.80;2.35;;;;;;;22.57;23.76;101730.70;1441766;90;21386;-92
2021/10/25 12:10:53;;;;;;;7.05;2.80;;;;;;;22.66;23.46;101732.22;1427815;90;21497;-93
2021/10/25 12:13:21;;;;;;;;;;;;;;;23.06;23.42;101732.02;1445678;90;22552;-93
2021/10/25 12:15:58;;;;;;;7.20;3.05;;;;;;;22.97;21.98;101721.89;1442360;90;20273;-92
2021/10/25 12:18:26;;;;;;;5.95;2.87;;;;;;;22.91;23.37;101724.00;1406454;90;21587;-92
2021/10/25 12:20:54;;;;;;;6.67;2.70;;;;;;;22.87;22.75;101714.64;1416965;90;21571;-92
2021/10/25 12:23:25;;;;;;;5.58;3.40;;;;;;;23.10;22.70;101717.09;1388101;90;21409;-93
2021/10/25 12:26:03;;;;;;;10.13;3.22;;;;;;;23.23;22.43;101715.49;1494226;90;22126;-88
2021/10/25 12:28:35;;;;;;;4.28;2.37;;;;;;;23.14;22.64;101710.78;1440254;90;21438;-88
2021/10/25 12:31:10;;;;;;;4.53;2.77;;;;;;;23.37;22.82;101709.13;1442428;90;21438;-88
2021/10/25 12:33:39;;;;;;;5.20;3.10;;;;;;;23.35;22.13;101698.50;1423479;90;21394;-89
2021/10/25 12:36:20;;;;;;;5.17;2.52;;;;;;;23.58;22.55;101691.94;1367924;90;21246;-87
2021/10/25 12:38:56;;;;;;;9.23;3.25;;;;;;;23.90;20.67;101692.27;1473215;90;22258;-88
2021/10/25 12:41:24;;;;;;;28.95;4.28;;;;;;;23.12;21.73;101684.48;1442331;90;21335;-93
2021/10/25 12:43:58;;;;;;;7.53;3.02;;;;;;;23.32;22.15;101682.70;1443115;90;21406;-93
2021/10/25 12:46:33;;;;;;;6.12;2.72;;;;;;;23.56;22.10;101688.60;1441739;90;21430;-92
2021/10/25 12:49:02;;;;;;;8.68;2.60;;;;;;;23.75;21.72;101682.45;1442594;90;21575;-93
2021/10/25 12:51:41;;;;;;;6.15;3.15;;;;;;;24.11;21.63;101677.23;1428320;90;21475;-90
2021/10/25 12:54:13;;;;;;;3.90;2.83;;;;;;;24.39;21.40;101677.52;1441088;90;21604;-90
2021/10/25 12:56:42;;;;;;;6.42;3.50;;;;;;;24.66;21.11;101671.61;1450141;90;21602;-91
2021/10/25 12:59:13;;;;;;;160.43;11.80;;;;;;;24.51;20.44;101665.05;1527221;90;21298;-91
2021/10/25 13:01:55;;;;;;;6.45;2.75;;;;;;;23.99;20.97;101662.62;1454082;90;21415;-90
2021/10/25 13:04:23;;;;;;;7.70;3.10;;;;;;;23.83;21.51;101664.70;1446210;90;21572;-91
2021/10/25 13:06:51;;;;;;;6.05;3.60;;;;;;;23.90;21.52;101659.82;1444626;90;21476;-91